Cedar Ravine, California
Current Conditions -  °F | °C
As of 8:35 PM on Monday 20 Oct 2014 (Local Time) from KPVF Reporting Station
Overcast Overcast  
Wind Chill: 52°   Ceiling: 4900
Heat Index: 52°   Visibility: 10mi
Dew Point: 50°   Wind: 5mph
Humidity: 94%   Direction: 180°S
Pressure: 30.03"   Gusts: NA
Location:  38.7308°N, 120.774°W
Report Text: KPVF 210335Z AUTO 18004KT 10SM SCT014 SCT034 OVC049 11/10 A3003 RMK AO1
Loading
Personal Weather Stations






























Interactive Weather Map New forecast layout! Learn more

10-Day Weather Forecast

Advertisements
Track Severe Weather on mobile